sensor_id;sensor_type;location;lat;lon;timestamp;P1;durP1;ratioP1;P2;durP2;ratioP2
42226;SDS011;27892;52.378;13.122;2022-07-29T00:01:47;1.10;;;1.10;;
42226;SDS011;27892;52.378;13.122;2022-07-29T00:04:12;1.00;;;1.00;;
42226;SDS011;27892;52.378;13.122;2022-07-29T00:06:38;1.10;;;1.10;;
42226;SDS011;27892;52.378;13.122;2022-07-29T00:09:04;1.00;;;0.97;;
42226;SDS011;27892;52.378;13.122;2022-07-29T00:11:30;0.90;;;0.90;;
42226;SDS011;27892;52.378;13.122;2022-07-29T00:13:56;1.10;;;1.10;;
42226;SDS011;27892;52.378;13.122;2022-07-29T00:16:21;1.00;;;1.00;;
42226;SDS011;27892;52.378;13.122;2022-07-29T00:18:48;0.90;;;0.90;;
42226;SDS011;27892;52.378;13.122;2022-07-29T00:21:13;1.00;;;1.00;;
42226;SDS011;27892;52.378;13.122;2022-07-29T00:23:39;0.73;;;0.73;;
42226;SDS011;27892;52.378;13.122;2022-07-29T00:26:04;1.10;;;1.00;;
42226;SDS011;27892;52.378;13.122;2022-07-29T00:28:30;1.20;;;1.20;;
42226;SDS011;27892;52.378;13.122;2022-07-29T00:30:56;1.23;;;1.10;;
42226;SDS011;27892;52.378;13.122;2022-07-29T00:33:22;1.10;;;1.10;;
42226;SDS011;27892;52.378;13.122;2022-07-29T00:35:48;1.23;;;1.10;;
42226;SDS011;27892;52.378;13.122;2022-07-29T00:38:15;1.20;;;1.10;;
42226;SDS011;27892;52.378;13.122;2022-07-29T00:40:42;1.60;;;1.40;;
42226;SDS011;27892;52.378;13.122;2022-07-29T00:43:09;1.40;;;1.40;;
42226;SDS011;27892;52.378;13.122;2022-07-29T00:45:35;1.30;;;1.20;;
42226;SDS011;27892;52.378;13.122;2022-07-29T00:48:01;1.20;;;1.20;;
42226;SDS011;27892;52.378;13.122;2022-07-29T00:50:28;1.23;;;1.23;;
42226;SDS011;27892;52.378;13.122;2022-07-29T00:52:54;1.30;;;1.30;;
42226;SDS011;27892;52.378;13.122;2022-07-29T00:55:20;1.33;;;1.33;;
42226;SDS011;27892;52.378;13.122;2022-07-29T00:57:46;1.60;;;1.50;;
42226;SDS011;27892;52.378;13.122;2022-07-29T01:00:14;1.40;;;1.30;;
42226;SDS011;27892;52.378;13.122;2022-07-29T01:02:42;1.60;;;1.50;;
42226;SDS011;27892;52.378;13.122;2022-07-29T01:05:08;1.50;;;1.40;;
42226;SDS011;27892;52.378;13.122;2022-07-29T01:07:36;1.50;;;1.40;;
42226;SDS011;27892;52.378;13.122;2022-07-29T01:10:03;1.40;;;1.30;;
42226;SDS011;27892;52.378;13.122;2022-07-29T01:12:30;1.10;;;1.10;;
42226;SDS011;27892;52.378;13.122;2022-07-29T01:14:58;1.10;;;1.10;;
42226;SDS011;27892;52.378;13.122;2022-07-29T01:26:07;1.57;;;1.47;;
42226;SDS011;27892;52.378;13.122;2022-07-29T01:32:07;2.00;;;1.70;;
42226;SDS011;27892;52.378;13.122;2022-07-29T01:34:50;1.80;;;1.70;;
42226;SDS011;27892;52.378;13.122;2022-07-29T01:43:13;1.80;;;1.70;;
42226;SDS011;27892;52.378;13.122;2022-07-29T01:45:47;2.33;;;1.80;;
42226;SDS011;27892;52.378;13.122;2022-07-29T01:48:24;2.27;;;2.07;;
42226;SDS011;27892;52.378;13.122;2022-07-29T01:50:58;1.80;;;1.70;;
42226;SDS011;27892;52.378;13.122;2022-07-29T01:53:31;2.33;;;2.10;;
42226;SDS011;27892;52.378;13.122;2022-07-29T01:56:23;3.73;;;2.30;;
42226;SDS011;27892;52.378;13.122;2022-07-29T01:58:50;1.90;;;1.80;;
42226;SDS011;27892;52.378;13.122;2022-07-29T02:01:18;1.63;;;1.53;;
42226;SDS011;27892;52.378;13.122;2022-07-29T02:03:45;1.60;;;1.50;;
42226;SDS011;27892;52.378;13.122;2022-07-29T02:06:12;1.63;;;1.53;;
42226;SDS011;27892;52.378;13.122;2022-07-29T02:08:41;1.60;;;1.50;;
42226;SDS011;27892;52.378;13.122;2022-07-29T02:11:08;1.50;;;1.40;;
42226;SDS011;27892;52.378;13.122;2022-07-29T02:13:34;1.13;;;1.13;;
42226;SDS011;27892;52.378;13.122;2022-07-29T02:16:02;1.80;;;1.70;;
42226;SDS011;27892;52.378;13.122;2022-07-29T02:18:30;1.70;;;1.60;;
42226;SDS011;27892;52.378;13.122;2022-07-29T02:20:59;1.50;;;1.40;;
42226;SDS011;27892;52.378;13.122;2022-07-29T02:23:26;1.30;;;1.20;;
42226;SDS011;27892;52.378;13.122;2022-07-29T02:25:56;1.60;;;1.50;;
42226;SDS011;27892;52.378;13.122;2022-07-29T02:28:24;1.33;;;1.23;;
42226;SDS011;27892;52.378;13.122;2022-07-29T02:30:55;1.70;;;1.60;;
42226;SDS011;27892;52.378;13.122;2022-07-29T02:33:24;3.20;;;2.57;;
42226;SDS011;27892;52.378;13.122;2022-07-29T02:35:51;2.03;;;1.90;;
42226;SDS011;27892;52.378;13.122;2022-07-29T02:38:17;1.90;;;1.73;;
42226;SDS011;27892;52.378;13.122;2022-07-29T02:41:13;1.90;;;1.80;;
42226;SDS011;27892;52.378;13.122;2022-07-29T02:43:43;1.57;;;1.47;;
42226;SDS011;27892;52.378;13.122;2022-07-29T02:46:13;1.70;;;1.60;;
42226;SDS011;27892;52.378;13.122;2022-07-29T02:48:58;1.73;;;1.63;;
42226;SDS011;27892;52.378;13.122;2022-07-29T02:51:54;2.20;;;1.53;;
42226;SDS011;27892;52.378;13.122;2022-07-29T02:57:55;3.17;;;2.00;;
42226;SDS011;27892;52.378;13.122;2022-07-29T03:00:45;1.80;;;1.70;;
42226;SDS011;27892;52.378;13.122;2022-07-29T03:03:33;1.80;;;1.70;;
42226;SDS011;27892;52.378;13.122;2022-07-29T03:06:02;3.23;;;2.40;;
42226;SDS011;27892;52.378;13.122;2022-07-29T03:08:30;2.17;;;1.90;;
42226;SDS011;27892;52.378;13.122;2022-07-29T03:10:57;3.00;;;2.20;;
42226;SDS011;27892;52.378;13.122;2022-07-29T03:13:23;2.20;;;2.00;;
42226;SDS011;27892;52.378;13.122;2022-07-29T03:15:50;2.00;;;1.90;;
42226;SDS011;27892;52.378;13.122;2022-07-29T03:18:17;1.70;;;1.60;;
42226;SDS011;27892;52.378;13.122;2022-07-29T03:20:43;1.50;;;1.40;;
42226;SDS011;27892;52.378;13.122;2022-07-29T03:23:08;2.77;;;1.80;;
42226;SDS011;27892;52.378;13.122;2022-07-29T03:25:34;2.13;;;1.97;;
42226;SDS011;27892;52.378;13.122;2022-07-29T03:28:00;2.33;;;2.13;;
42226;SDS011;27892;52.378;13.122;2022-07-29T03:30:26;2.43;;;2.10;;
42226;SDS011;27892;52.378;13.122;2022-07-29T03:32:53;2.10;;;1.90;;
42226;SDS011;27892;52.378;13.122;2022-07-29T03:35:19;3.53;;;2.43;;
42226;SDS011;27892;52.378;13.122;2022-07-29T03:37:45;2.47;;;2.27;;
42226;SDS011;27892;52.378;13.122;2022-07-29T03:40:11;2.00;;;1.90;;
42226;SDS011;27892;52.378;13.122;2022-07-29T03:42:43;1.90;;;1.80;;
42226;SDS011;27892;52.378;13.122;2022-07-29T03:45:12;3.20;;;2.47;;
42226;SDS011;27892;52.378;13.122;2022-07-29T03:47:42;1.93;;;1.83;;
42226;SDS011;27892;52.378;13.122;2022-07-29T03:50:12;2.57;;;2.37;;
42226;SDS011;27892;52.378;13.122;2022-07-29T03:52:39;2.50;;;2.10;;
42226;SDS011;27892;52.378;13.122;2022-07-29T03:55:05;2.20;;;1.97;;
42226;SDS011;27892;52.378;13.122;2022-07-29T03:57:32;3.20;;;2.20;;
42226;SDS011;27892;52.378;13.122;2022-07-29T03:59:59;2.27;;;2.07;;
42226;SDS011;27892;52.378;13.122;2022-07-29T04:02:28;2.50;;;2.10;;
42226;SDS011;27892;52.378;13.122;2022-07-29T04:04:54;1.93;;;1.73;;
42226;SDS011;27892;52.378;13.122;2022-07-29T04:07:20;2.73;;;2.07;;
42226;SDS011;27892;52.378;13.122;2022-07-29T04:09:45;1.80;;;1.70;;
42226;SDS011;27892;52.378;13.122;2022-07-29T04:12:11;1.90;;;1.73;;
42226;SDS011;27892;52.378;13.122;2022-07-29T04:14:36;1.70;;;1.60;;
42226;SDS011;27892;52.378;13.122;2022-07-29T04:17:03;1.80;;;1.70;;
42226;SDS011;27892;52.378;13.122;2022-07-29T04:19:29;1.80;;;1.70;;
42226;SDS011;27892;52.378;13.122;2022-07-29T04:21:55;2.40;;;1.77;;
42226;SDS011;27892;52.378;13.122;2022-07-29T04:24:21;2.50;;;1.93;;
42226;SDS011;27892;52.378;13.122;2022-07-29T04:26:47;3.03;;;1.93;;
42226;SDS011;27892;52.378;13.122;2022-07-29T04:29:13;1.70;;;1.60;;
42226;SDS011;27892;52.378;13.122;2022-07-29T04:31:39;3.00;;;2.20;;
42226;SDS011;27892;52.378;13.122;2022-07-29T04:34:05;2.67;;;1.90;;
42226;SDS011;27892;52.378;13.122;2022-07-29T04:36:31;1.80;;;1.70;;
42226;SDS011;27892;52.378;13.122;2022-07-29T04:38:57;2.80;;;2.30;;
42226;SDS011;27892;52.378;13.122;2022-07-29T04:41:23;2.87;;;2.50;;
42226;SDS011;27892;52.378;13.122;2022-07-29T04:43:49;2.33;;;2.13;;
42226;SDS011;27892;52.378;13.122;2022-07-29T04:46:14;2.10;;;1.90;;
42226;SDS011;27892;52.378;13.122;2022-07-29T04:48:40;2.53;;;2.33;;
42226;SDS011;27892;52.378;13.122;2022-07-29T04:51:06;2.20;;;2.00;;
42226;SDS011;27892;52.378;13.122;2022-07-29T04:53:31;1.90;;;1.80;;
42226;SDS011;27892;52.378;13.122;2022-07-29T04:55:58;3.10;;;2.37;;
42226;SDS011;27892;52.378;13.122;2022-07-29T04:58:23;2.53;;;2.17;;
42226;SDS011;27892;52.378;13.122;2022-07-29T05:00:49;1.93;;;1.83;;
42226;SDS011;27892;52.378;13.122;2022-07-29T05:03:16;2.20;;;2.00;;
42226;SDS011;27892;52.378;13.122;2022-07-29T05:05:42;2.37;;;2.17;;
42226;SDS011;27892;52.378;13.122;2022-07-29T05:08:07;1.80;;;1.70;;
42226;SDS011;27892;52.378;13.122;2022-07-29T05:10:33;4.00;;;2.50;;
42226;SDS011;27892;52.378;13.122;2022-07-29T05:13:03;3.00;;;2.30;;
42226;SDS011;27892;52.378;13.122;2022-07-29T05:15:30;3.50;;;2.30;;
42226;SDS011;27892;52.378;13.122;2022-07-29T05:17:56;2.27;;;2.03;;
42226;SDS011;27892;52.378;13.122;2022-07-29T05:20:21;3.43;;;2.50;;
42226;SDS011;27892;52.378;13.122;2022-07-29T05:22:51;2.63;;;2.37;;
42226;SDS011;27892;52.378;13.122;2022-07-29T05:25:17;2.77;;;2.30;;
42226;SDS011;27892;52.378;13.122;2022-07-29T05:27:43;3.73;;;2.43;;
42226;SDS011;27892;52.378;13.122;2022-07-29T05:30:08;4.07;;;2.83;;
42226;SDS011;27892;52.378;13.122;2022-07-29T05:32:35;11.27;;;3.40;;
42226;SDS011;27892;52.378;13.122;2022-07-29T05:35:00;4.77;;;2.50;;
42226;SDS011;27892;52.378;13.122;2022-07-29T05:37:26;3.63;;;2.50;;
42226;SDS011;27892;52.378;13.122;2022-07-29T05:39:52;3.77;;;2.30;;
42226;SDS011;27892;52.378;13.122;2022-07-29T05:42:17;3.97;;;2.40;;
42226;SDS011;27892;52.378;13.122;2022-07-29T05:44:43;4.03;;;2.50;;
42226;SDS011;27892;52.378;13.122;2022-07-29T05:47:08;2.47;;;2.03;;
42226;SDS011;27892;52.378;13.122;2022-07-29T05:49:34;2.60;;;2.38;;
42226;SDS011;27892;52.378;13.122;2022-07-29T05:52:00;2.90;;;2.60;;
42226;SDS011;27892;52.378;13.122;2022-07-29T05:54:25;2.53;;;2.33;;
42226;SDS011;27892;52.378;13.122;2022-07-29T05:56:51;3.42;;;2.72;;
42226;SDS011;27892;52.378;13.122;2022-07-29T05:59:16;3.13;;;2.47;;
42226;SDS011;27892;52.378;13.122;2022-07-29T06:01:42;3.67;;;2.33;;
42226;SDS011;27892;52.378;13.122;2022-07-29T06:04:08;3.70;;;2.40;;
42226;SDS011;27892;52.378;13.122;2022-07-29T06:06:33;4.55;;;2.95;;
42226;SDS011;27892;52.378;13.122;2022-07-29T06:09:00;4.20;;;2.90;;
42226;SDS011;27892;52.378;13.122;2022-07-29T06:11:26;4.00;;;2.72;;
42226;SDS011;27892;52.378;13.122;2022-07-29T06:13:52;2.77;;;2.37;;
42226;SDS011;27892;52.378;13.122;2022-07-29T06:16:18;3.35;;;2.30;;
42226;SDS011;27892;52.378;13.122;2022-07-29T06:18:44;6.90;;;2.78;;
42226;SDS011;27892;52.378;13.122;2022-07-29T06:21:10;2.72;;;2.20;;
42226;SDS011;27892;52.378;13.122;2022-07-29T06:23:39;3.08;;;2.22;;
42226;SDS011;27892;52.378;13.122;2022-07-29T06:26:04;2.75;;;2.10;;
42226;SDS011;27892;52.378;13.122;2022-07-29T06:28:31;4.60;;;2.58;;
42226;SDS011;27892;52.378;13.122;2022-07-29T06:30:57;5.10;;;2.90;;
42226;SDS011;27892;52.378;13.122;2022-07-29T06:33:23;4.00;;;2.55;;
42226;SDS011;27892;52.378;13.122;2022-07-29T06:35:49;6.18;;;2.70;;
42226;SDS011;27892;52.378;13.122;2022-07-29T06:38:15;4.05;;;2.53;;
42226;SDS011;27892;52.378;13.122;2022-07-29T06:40:41;3.70;;;2.08;;
42226;SDS011;27892;52.378;13.122;2022-07-29T06:43:31;2.08;;;1.88;;
42226;SDS011;27892;52.378;13.122;2022-07-29T06:46:06;2.88;;;2.13;;
42226;SDS011;27892;52.378;13.122;2022-07-29T06:48:33;4.65;;;2.55;;
42226;SDS011;27892;52.378;13.122;2022-07-29T06:51:01;3.90;;;2.55;;
42226;SDS011;27892;52.378;13.122;2022-07-29T06:53:27;3.63;;;2.50;;
42226;SDS011;27892;52.378;13.122;2022-07-29T06:55:54;3.80;;;2.60;;
42226;SDS011;27892;52.378;13.122;2022-07-29T06:58:20;2.97;;;2.63;;
42226;SDS011;27892;52.378;13.122;2022-07-29T07:00:46;5.15;;;2.60;;
42226;SDS011;27892;52.378;13.122;2022-07-29T07:03:13;4.05;;;2.30;;
42226;SDS011;27892;52.378;13.122;2022-07-29T07:05:39;2.45;;;2.20;;
42226;SDS011;27892;52.378;13.122;2022-07-29T07:08:05;2.20;;;2.00;;
42226;SDS011;27892;52.378;13.122;2022-07-29T07:10:30;2.25;;;1.80;;
42226;SDS011;27892;52.378;13.122;2022-07-29T07:12:57;2.42;;;1.90;;
42226;SDS011;27892;52.378;13.122;2022-07-29T07:15:23;3.10;;;1.90;;
42226;SDS011;27892;52.378;13.122;2022-07-29T07:17:48;2.85;;;2.20;;
42226;SDS011;27892;52.378;13.122;2022-07-29T07:20:15;3.80;;;2.30;;
42226;SDS011;27892;52.378;13.122;2022-07-29T07:22:41;2.22;;;1.98;;
42226;SDS011;27892;52.378;13.122;2022-07-29T07:25:07;1.83;;;1.70;;
42226;SDS011;27892;52.378;13.122;2022-07-29T07:27:33;2.70;;;1.70;;
42226;SDS011;27892;52.378;13.122;2022-07-29T07:29:59;3.20;;;2.28;;
42226;SDS011;27892;52.378;13.122;2022-07-29T07:32:25;5.10;;;2.10;;
42226;SDS011;27892;52.378;13.122;2022-07-29T07:34:51;3.55;;;2.05;;
42226;SDS011;27892;52.378;13.122;2022-07-29T07:37:16;2.38;;;1.63;;
42226;SDS011;27892;52.378;13.122;2022-07-29T07:39:44;2.13;;;1.80;;
42226;SDS011;27892;52.378;13.122;2022-07-29T07:42:10;1.90;;;1.80;;
42226;SDS011;27892;52.378;13.122;2022-07-29T07:44:37;3.38;;;2.10;;
42226;SDS011;27892;52.378;13.122;2022-07-29T07:47:04;1.70;;;1.60;;
42226;SDS011;27892;52.378;13.122;2022-07-29T07:49:30;1.60;;;1.50;;
42226;SDS011;27892;52.378;13.122;2022-07-29T07:51:55;2.20;;;2.00;;
42226;SDS011;27892;52.378;13.122;2022-07-29T07:54:21;2.00;;;1.80;;
42226;SDS011;27892;52.378;13.122;2022-07-29T07:56:46;6.72;;;2.55;;
42226;SDS011;27892;52.378;13.122;2022-07-29T07:59:14;5.55;;;2.35;;
42226;SDS011;27892;52.378;13.122;2022-07-29T08:01:40;4.03;;;2.08;;
42226;SDS011;27892;52.378;13.122;2022-07-29T08:04:07;2.67;;;1.90;;
42226;SDS011;27892;52.378;13.122;2022-07-29T08:06:33;3.97;;;1.95;;
42226;SDS011;27892;52.378;13.122;2022-07-29T08:09:00;2.42;;;1.58;;
42226;SDS011;27892;52.378;13.122;2022-07-29T08:11:27;3.60;;;1.75;;
42226;SDS011;27892;52.378;13.122;2022-07-29T08:13:53;3.30;;;2.00;;
42226;SDS011;27892;52.378;13.122;2022-07-29T08:16:19;3.15;;;2.00;;
42226;SDS011;27892;52.378;13.122;2022-07-29T08:18:45;1.88;;;1.67;;
42226;SDS011;27892;52.378;13.122;2022-07-29T08:21:11;2.60;;;1.90;;
42226;SDS011;27892;52.378;13.122;2022-07-29T08:23:38;2.47;;;1.90;;
42226;SDS011;27892;52.378;13.122;2022-07-29T08:26:13;1.90;;;1.63;;
42226;SDS011;27892;52.378;13.122;2022-07-29T08:28:40;4.43;;;1.98;;
42226;SDS011;27892;52.378;13.122;2022-07-29T08:31:10;3.67;;;2.22;;
42226;SDS011;27892;52.378;13.122;2022-07-29T08:33:37;2.35;;;1.83;;
42226;SDS011;27892;52.378;13.122;2022-07-29T08:36:02;4.03;;;2.15;;
42226;SDS011;27892;52.378;13.122;2022-07-29T08:38:28;3.55;;;2.10;;
42226;SDS011;27892;52.378;13.122;2022-07-29T08:40:54;5.10;;;2.10;;
42226;SDS011;27892;52.378;13.122;2022-07-29T08:43:20;26.27;;;3.80;;
42226;SDS011;27892;52.378;13.122;2022-07-29T08:45:46;5.03;;;1.98;;
42226;SDS011;27892;52.378;13.122;2022-07-29T08:48:14;2.33;;;1.60;;
42226;SDS011;27892;52.378;13.122;2022-07-29T08:50:41;6.53;;;2.17;;
42226;SDS011;27892;52.378;13.122;2022-07-29T08:53:10;3.55;;;1.70;;
42226;SDS011;27892;52.378;13.122;2022-07-29T08:55:44;4.30;;;1.92;;
42226;SDS011;27892;52.378;13.122;2022-07-29T08:58:12;2.55;;;1.60;;
42226;SDS011;27892;52.378;13.122;2022-07-29T09:00:44;1.70;;;1.60;;
42226;SDS011;27892;52.378;13.122;2022-07-29T09:03:16;3.83;;;1.83;;
42226;SDS011;27892;52.378;13.122;2022-07-29T09:05:45;2.83;;;2.00;;
42226;SDS011;27892;52.378;13.122;2022-07-29T09:08:12;8.02;;;2.28;;
42226;SDS011;27892;52.378;13.122;2022-07-29T09:10:39;2.40;;;1.70;;
42226;SDS011;27892;52.378;13.122;2022-07-29T09:13:05;2.10;;;1.50;;
42226;SDS011;27892;52.378;13.122;2022-07-29T09:15:30;4.00;;;2.10;;
42226;SDS011;27892;52.378;13.122;2022-07-29T09:17:56;2.70;;;1.98;;
42226;SDS011;27892;52.378;13.122;2022-07-29T09:20:23;1.75;;;1.65;;
42226;SDS011;27892;52.378;13.122;2022-07-29T09:22:49;4.28;;;1.60;;
42226;SDS011;27892;52.378;13.122;2022-07-29T09:25:34;1.88;;;1.70;;
42226;SDS011;27892;52.378;13.122;2022-07-29T09:31:12;3.72;;;1.90;;
42226;SDS011;27892;52.378;13.122;2022-07-29T09:33:33;2.40;;;1.90;;
42226;SDS011;27892;52.378;13.122;2022-07-29T09:36:06;5.03;;;2.00;;
42226;SDS011;27892;52.378;13.122;2022-07-29T09:38:34;3.65;;;1.65;;
42226;SDS011;27892;52.378;13.122;2022-07-29T09:41:02;13.68;;;3.13;;
42226;SDS011;27892;52.378;13.122;2022-07-29T09:43:29;1.65;;;1.55;;
42226;SDS011;27892;52.378;13.122;2022-07-29T09:45:55;1.50;;;1.40;;
42226;SDS011;27892;52.378;13.122;2022-07-29T09:50:47;2.80;;;1.92;;
42226;SDS011;27892;52.378;13.122;2022-07-29T09:53:34;2.83;;;2.05;;
42226;SDS011;27892;52.378;13.122;2022-07-29T09:56:03;4.32;;;1.83;;
42226;SDS011;27892;52.378;13.122;2022-07-29T09:58:30;2.38;;;1.80;;
42226;SDS011;27892;52.378;13.122;2022-07-29T10:00:56;4.97;;;1.70;;
42226;SDS011;27892;52.378;13.122;2022-07-29T10:03:22;4.28;;;1.90;;
42226;SDS011;27892;52.378;13.122;2022-07-29T10:08:49;5.03;;;3.20;;
42226;SDS011;27892;52.378;13.122;2022-07-29T10:11:16;4.32;;;2.70;;
42226;SDS011;27892;52.378;13.122;2022-07-29T10:13:43;3.47;;;2.15;;
42226;SDS011;27892;52.378;13.122;2022-07-29T10:16:12;3.08;;;1.90;;
42226;SDS011;27892;52.378;13.122;2022-07-29T10:18:38;1.80;;;1.70;;
42226;SDS011;27892;52.378;13.122;2022-07-29T10:21:06;2.38;;;1.60;;
42226;SDS011;27892;52.378;13.122;2022-07-29T10:23:33;2.30;;;1.90;;
42226;SDS011;27892;52.378;13.122;2022-07-29T10:25:58;2.30;;;1.80;;
42226;SDS011;27892;52.378;13.122;2022-07-29T10:28:25;3.65;;;1.75;;
42226;SDS011;27892;52.378;13.122;2022-07-29T10:30:51;3.47;;;2.08;;
42226;SDS011;27892;52.378;13.122;2022-07-29T10:38:54;3.28;;;1.92;;
42226;SDS011;27892;52.378;13.122;2022-07-29T10:44:24;2.85;;;1.85;;
42226;SDS011;27892;52.378;13.122;2022-07-29T10:46:51;1.63;;;1.52;;
42226;SDS011;27892;52.378;13.122;2022-07-29T10:49:21;2.08;;;1.88;;
42226;SDS011;27892;52.378;13.122;2022-07-29T10:59:46;1.80;;;1.70;;
42226;SDS011;27892;52.378;13.122;2022-07-29T11:05:02;1.95;;;1.70;;
42226;SDS011;27892;52.378;13.122;2022-07-29T11:07:29;1.98;;;1.60;;
42226;SDS011;27892;52.378;13.122;2022-07-29T11:12:50;5.35;;;2.10;;
42226;SDS011;27892;52.378;13.122;2022-07-29T11:15:17;2.10;;;1.70;;
42226;SDS011;27892;52.378;13.122;2022-07-29T11:23:28;2.17;;;2.00;;
42226;SDS011;27892;52.378;13.122;2022-07-29T11:39:40;2.00;;;1.90;;
42226;SDS011;27892;52.378;13.122;2022-07-29T11:44:54;3.40;;;2.17;;
42226;SDS011;27892;52.378;13.122;2022-07-29T11:47:22;6.55;;;2.53;;
42226;SDS011;27892;52.378;13.122;2022-07-29T11:49:50;2.60;;;2.15;;
42226;SDS011;27892;52.378;13.122;2022-07-29T11:52:17;6.80;;;2.95;;
42226;SDS011;27892;52.378;13.122;2022-07-29T11:54:43;3.78;;;2.30;;
42226;SDS011;27892;52.378;13.122;2022-07-29T11:57:10;3.17;;;2.13;;
42226;SDS011;27892;52.378;13.122;2022-07-29T11:59:40;3.25;;;2.25;;
42226;SDS011;27892;52.378;13.122;2022-07-29T12:02:07;2.70;;;2.15;;
42226;SDS011;27892;52.378;13.122;2022-07-29T12:04:34;8.75;;;2.65;;
42226;SDS011;27892;52.378;13.122;2022-07-29T12:07:12;6.03;;;2.55;;
42226;SDS011;27892;52.378;13.122;2022-07-29T12:09:38;3.63;;;2.42;;
42226;SDS011;27892;52.378;13.122;2022-07-29T12:12:04;3.10;;;2.17;;
42226;SDS011;27892;52.378;13.122;2022-07-29T12:14:31;4.55;;;2.65;;
42226;SDS011;27892;52.378;13.122;2022-07-29T12:17:00;3.15;;;2.30;;
42226;SDS011;27892;52.378;13.122;2022-07-29T12:19:26;3.65;;;2.40;;
42226;SDS011;27892;52.378;13.122;2022-07-29T12:21:52;2.40;;;2.20;;
42226;SDS011;27892;52.378;13.122;2022-07-29T12:24:20;2.67;;;2.00;;
42226;SDS011;27892;52.378;13.122;2022-07-29T12:26:56;4.00;;;2.30;;
42226;SDS011;27892;52.378;13.122;2022-07-29T12:29:23;3.78;;;2.25;;
42226;SDS011;27892;52.378;13.122;2022-07-29T12:31:52;2.88;;;2.20;;
42226;SDS011;27892;52.378;13.122;2022-07-29T12:34:19;3.10;;;2.17;;
42226;SDS011;27892;52.378;13.122;2022-07-29T12:36:47;4.70;;;2.28;;
42226;SDS011;27892;52.378;13.122;2022-07-29T12:39:15;3.78;;;2.35;;
42226;SDS011;27892;52.378;13.122;2022-07-29T12:41:42;3.58;;;2.50;;
42226;SDS011;27892;52.378;13.122;2022-07-29T12:44:08;4.45;;;2.38;;
42226;SDS011;27892;52.378;13.122;2022-07-29T12:46:34;2.67;;;2.42;;
42226;SDS011;27892;52.378;13.122;2022-07-29T12:48:59;3.33;;;2.10;;
42226;SDS011;27892;52.378;13.122;2022-07-29T12:51:29;3.47;;;2.20;;
42226;SDS011;27892;52.378;13.122;2022-07-29T12:54:09;4.43;;;2.40;;
42226;SDS011;27892;52.378;13.122;2022-07-29T12:56:37;5.00;;;2.95;;
42226;SDS011;27892;52.378;13.122;2022-07-29T12:59:17;2.67;;;2.47;;
42226;SDS011;27892;52.378;13.122;2022-07-29T13:01:45;2.83;;;2.20;;
42226;SDS011;27892;52.378;13.122;2022-07-29T13:04:23;2.45;;;2.10;;
42226;SDS011;27892;52.378;13.122;2022-07-29T13:07:03;5.60;;;2.50;;
42226;SDS011;27892;52.378;13.122;2022-07-29T13:09:36;10.82;;;3.22;;
42226;SDS011;27892;52.378;13.122;2022-07-29T13:12:07;2.90;;;2.60;;
42226;SDS011;27892;52.378;13.122;2022-07-29T13:14:41;4.85;;;2.30;;
42226;SDS011;27892;52.378;13.122;2022-07-29T13:17:19;2.40;;;2.17;;
42226;SDS011;27892;52.378;13.122;2022-07-29T13:19:51;4.28;;;2.65;;
42226;SDS011;27892;52.378;13.122;2022-07-29T13:22:22;2.85;;;2.53;;
42226;SDS011;27892;52.378;13.122;2022-07-29T13:24:52;2.97;;;2.55;;
42226;SDS011;27892;52.378;13.122;2022-07-29T13:27:20;6.70;;;2.90;;
42226;SDS011;27892;52.378;13.122;2022-07-29T13:29:47;3.28;;;2.60;;
42226;SDS011;27892;52.378;13.122;2022-07-29T13:32:16;2.28;;;2.15;;
42226;SDS011;27892;52.378;13.122;2022-07-29T13:34:42;2.00;;;1.90;;
42226;SDS011;27892;52.378;13.122;2022-07-29T13:37:07;2.08;;;1.88;;
42226;SDS011;27892;52.378;13.122;2022-07-29T13:39:33;1.80;;;1.70;;
42226;SDS011;27892;52.378;13.122;2022-07-29T13:41:58;3.08;;;1.98;;
42226;SDS011;27892;52.378;13.122;2022-07-29T13:44:24;3.38;;;2.28;;
42226;SDS011;27892;52.378;13.122;2022-07-29T13:46:50;5.05;;;2.40;;
42226;SDS011;27892;52.378;13.122;2022-07-29T13:49:16;2.95;;;2.40;;
42226;SDS011;27892;52.378;13.122;2022-07-29T13:51:42;3.70;;;1.90;;
42226;SDS011;27892;52.378;13.122;2022-07-29T13:54:07;2.70;;;2.25;;
42226;SDS011;27892;52.378;13.122;2022-07-29T13:56:33;2.20;;;1.70;;
42226;SDS011;27892;52.378;13.122;2022-07-29T13:58:59;2.00;;;1.90;;
42226;SDS011;27892;52.378;13.122;2022-07-29T14:01:26;2.00;;;1.90;;
42226;SDS011;27892;52.378;13.122;2022-07-29T14:03:52;2.67;;;2.10;;
42226;SDS011;27892;52.378;13.122;2022-07-29T14:06:18;2.45;;;2.10;;
42226;SDS011;27892;52.378;13.122;2022-07-29T14:08:44;2.92;;;2.33;;
42226;SDS011;27892;52.378;13.122;2022-07-29T14:11:10;3.28;;;2.20;;
42226;SDS011;27892;52.378;13.122;2022-07-29T14:13:38;3.05;;;2.40;;
42226;SDS011;27892;52.378;13.122;2022-07-29T14:16:04;3.55;;;2.25;;
42226;SDS011;27892;52.378;13.122;2022-07-29T14:18:30;4.25;;;2.28;;
42226;SDS011;27892;52.378;13.122;2022-07-29T14:20:56;2.30;;;2.08;;
42226;SDS011;27892;52.378;13.122;2022-07-29T14:23:21;3.17;;;1.95;;
42226;SDS011;27892;52.378;13.122;2022-07-29T14:25:47;4.13;;;2.00;;
42226;SDS011;27892;52.378;13.122;2022-07-29T14:28:13;3.88;;;2.50;;
42226;SDS011;27892;52.378;13.122;2022-07-29T14:30:38;3.72;;;2.40;;
42226;SDS011;27892;52.378;13.122;2022-07-29T14:33:04;5.60;;;2.35;;
42226;SDS011;27892;52.378;13.122;2022-07-29T14:35:30;2.13;;;2.03;;
42226;SDS011;27892;52.378;13.122;2022-07-29T14:37:58;3.85;;;1.90;;
42226;SDS011;27892;52.378;13.122;2022-07-29T14:40:24;2.72;;;1.92;;
42226;SDS011;27892;52.378;13.122;2022-07-29T14:42:50;2.38;;;2.15;;
42226;SDS011;27892;52.378;13.122;2022-07-29T14:45:16;3.63;;;2.45;;
42226;SDS011;27892;52.378;13.122;2022-07-29T14:47:42;2.45;;;2.00;;
42226;SDS011;27892;52.378;13.122;2022-07-29T14:50:07;2.08;;;1.90;;
42226;SDS011;27892;52.378;13.122;2022-07-29T14:52:33;3.13;;;2.38;;
42226;SDS011;27892;52.378;13.122;2022-07-29T14:54:59;2.97;;;2.33;;
42226;SDS011;27892;52.378;13.122;2022-07-29T14:57:25;2.20;;;2.00;;
42226;SDS011;27892;52.378;13.122;2022-07-29T14:59:50;4.50;;;2.38;;
42226;SDS011;27892;52.378;13.122;2022-07-29T15:02:16;3.22;;;2.20;;
42226;SDS011;27892;52.378;13.122;2022-07-29T15:04:42;2.95;;;2.30;;
42226;SDS011;27892;52.378;13.122;2022-07-29T15:07:08;7.35;;;2.72;;
42226;SDS011;27892;52.378;13.122;2022-07-29T15:09:36;5.15;;;2.20;;
42226;SDS011;27892;52.378;13.122;2022-07-29T15:12:02;2.75;;;2.45;;
42226;SDS011;27892;52.378;13.122;2022-07-29T15:14:28;7.07;;;2.65;;
42226;SDS011;27892;52.378;13.122;2022-07-29T15:16:53;3.75;;;2.33;;
42226;SDS011;27892;52.378;13.122;2022-07-29T15:19:19;5.97;;;2.83;;
42226;SDS011;27892;52.378;13.122;2022-07-29T15:21:45;1.83;;;1.73;;
42226;SDS011;27892;52.378;13.122;2022-07-29T15:24:11;1.90;;;1.70;;
42226;SDS011;27892;52.378;13.122;2022-07-29T15:26:36;5.00;;;2.85;;
42226;SDS011;27892;52.378;13.122;2022-07-29T15:29:02;2.75;;;2.55;;
42226;SDS011;27892;52.378;13.122;2022-07-29T15:31:28;4.55;;;2.75;;
42226;SDS011;27892;52.378;13.122;2022-07-29T15:33:53;5.25;;;2.90;;
42226;SDS011;27892;52.378;13.122;2022-07-29T15:36:19;2.72;;;2.47;;
42226;SDS011;27892;52.378;13.122;2022-07-29T15:38:45;3.17;;;2.30;;
42226;SDS011;27892;52.378;13.122;2022-07-29T15:41:13;2.85;;;2.40;;
42226;SDS011;27892;52.378;13.122;2022-07-29T15:43:42;2.53;;;2.22;;
42226;SDS011;27892;52.378;13.122;2022-07-29T15:46:08;2.58;;;2.13;;
42226;SDS011;27892;52.378;13.122;2022-07-29T15:48:58;8.43;;;2.60;;
42226;SDS011;27892;52.378;13.122;2022-07-29T15:51:24;5.03;;;2.05;;